RJFS(METAR)
08/12 23:00
METAR RJFS 121400Z 15008KT 9999 FEW010 SCT025 BKN/// 28/26 Q1008 RMK
1CU010 4CU025 A2977=
戻る
トップページへ戻る
IMOC Co,.Ltd.